Time;durP1;ratioP1;P1;durP2;ratioP2;P2;SDS_P1;SDS_P2;PMS_P1;PMS_P2;Temp;Humidity;BMP_temperature;BMP_pressure;BME280_temperature;BME280_humidity;BME280_pressure;Samples;Min_cycle;Max_cycle;Signal;HPM_P1;HPM_P2
2023/04/06 00:00:59;;;;;;;9.98;5.88;;;5.40;99.90;;;5.35;nan;100951.59;5009564;28;20226;-66
2023/04/06 00:03:26;;;;;;;10.30;5.90;;;5.40;99.90;;;5.33;nan;100944.78;5009233;28;20229;-67
2023/04/06 00:05:53;;;;;;;8.68;5.43;;;5.40;99.90;;;5.33;nan;100943.06;5009598;28;20673;-67
2023/04/06 00:08:21;;;;;;;9.25;5.22;;;5.40;99.90;;;5.34;nan;100949.06;5006677;28;20765;-67
2023/04/06 00:10:48;;;;;;;8.50;5.05;;;5.40;99.90;;;5.31;nan;100944.88;5001822;28;20222;-67
2023/04/06 00:13:15;;;;;;;8.52;5.10;;;5.40;99.90;;;5.28;nan;100933.84;5009108;28;20202;-67
2023/04/06 00:15:42;;;;;;;7.68;4.95;;;5.30;99.90;;;5.24;nan;100930.53;5010366;28;20237;-66
2023/04/06 00:18:09;;;;;;;8.73;4.13;;;5.30;99.90;;;5.24;nan;100932.25;5005143;28;20211;-66
2023/04/06 00:20:36;;;;;;;5.68;3.40;;;5.30;99.90;;;5.19;nan;100934.25;5008078;28;20284;-65
2023/04/06 00:23:03;;;;;;;7.65;3.53;;;5.20;99.90;;;5.12;nan;100930.25;5008698;28;20210;-66
2023/04/06 00:25:30;;;;;;;4.28;3.53;;;5.20;99.90;;;4.99;nan;100929.94;5011450;28;20826;-63
2023/04/06 00:27:57;;;;;;;11.10;5.60;;;5.10;99.90;;;4.88;nan;100933.91;5012262;28;20203;-66
2023/04/06 00:30:24;;;;;;;10.60;4.93;;;5.00;99.90;;;4.81;nan;100938.53;5012558;28;20611;-67
2023/04/06 00:32:51;;;;;;;3.83;2.92;;;4.90;99.90;;;4.76;nan;100937.88;5012967;28;20210;-66
2023/04/06 00:35:18;;;;;;;4.85;2.95;;;4.80;99.90;;;4.65;nan;100937.50;5013169;28;20222;-66
2023/04/06 00:37:48;;;;;;;4.40;3.10;;;4.70;99.90;;;4.62;nan;100932.47;5013926;28;20214;-66
2023/04/06 00:40:15;;;;;;;7.40;4.53;;;4.70;99.90;;;4.50;nan;100928.66;5008170;28;20243;-66
2023/04/06 00:42:42;;;;;;;9.30;5.60;;;4.60;99.90;;;4.50;nan;100931.22;5012144;28;20700;-66
2023/04/06 00:45:10;;;;;;;8.35;5.38;;;4.60;99.90;;;4.54;nan;100931.94;5012317;28;20268;-65
2023/04/06 00:47:37;;;;;;;5.32;4.05;;;4.60;99.90;;;4.59;nan;100928.28;5009262;28;20205;-66
2023/04/06 00:50:05;;;;;;;7.72;5.00;;;4.70;99.90;;;4.59;nan;100923.09;5012649;28;20238;-65
2023/04/06 00:52:34;;;;;;;7.43;5.40;;;4.70;99.90;;;4.60;nan;100922.19;5012783;28;20562;-67
2023/04/06 00:55:03;;;;;;;8.75;5.13;;;4.70;99.90;;;4.60;nan;100913.56;5026309;28;20273;-68
2023/04/06 00:57:31;;;;;;;7.68;5.47;;;4.70;99.90;;;4.60;nan;100911.00;5008086;28;20336;-67
2023/04/06 00:59:58;;;;;;;9.77;5.13;;;4.70;99.90;;;4.58;nan;100911.06;5012158;28;20284;-68
2023/04/06 01:02:25;;;;;;;18.08;5.18;;;4.60;99.90;;;4.58;nan;100905.91;5007858;28;20230;-65
2023/04/06 01:04:54;;;;;;;6.93;4.65;;;4.70;99.90;;;4.60;nan;100905.81;5011594;28;20195;-68
2023/04/06 01:07:21;;;;;;;5.80;4.82;;;4.70;99.90;;;4.63;nan;100909.13;5006780;28;20207;-69
2023/04/06 01:09:48;;;;;;;8.27;5.22;;;4.70;99.90;;;4.64;nan;100897.06;4992610;28;20235;-65
2023/04/06 01:12:15;;;;;;;4.57;3.83;;;4.70;99.90;;;4.61;nan;100903.19;5003007;28;20211;-65
2023/04/06 01:14:42;;;;;;;3.70;3.15;;;4.70;99.90;;;4.60;nan;100903.25;5012674;28;20206;-65
2023/04/06 01:17:09;;;;;;;5.03;3.30;;;4.70;99.90;;;4.56;nan;100899.13;5010419;28;20207;-65
2023/04/06 01:19:36;;;;;;;7.75;4.35;;;4.70;99.90;;;4.52;nan;100901.00;5005857;28;20270;-65
2023/04/06 01:22:03;;;;;;;4.25;3.05;;;4.60;99.90;;;4.48;nan;100896.03;4992948;28;20204;-68
2023/04/06 01:24:30;;;;;;;5.70;3.63;;;4.60;99.90;;;4.43;nan;100897.97;4993756;28;20716;-68
2023/04/06 01:26:57;;;;;;;7.13;3.15;;;4.50;99.90;;;4.40;nan;100898.94;4998872;28;20211;-65
2023/04/06 01:29:24;;;;;;;5.13;4.18;;;4.50;99.90;;;4.38;nan;100890.44;5012623;28;20227;-67
2023/04/06 01:31:51;;;;;;;2.90;2.55;;;4.50;99.90;;;4.38;nan;100890.44;5012266;28;20202;-67
2023/04/06 01:34:18;;;;;;;6.40;3.75;;;4.50;99.90;;;4.34;nan;100888.88;5002731;28;20211;-67
2023/04/06 01:36:45;;;;;;;7.40;4.80;;;4.50;99.90;;;4.29;nan;100885.63;5010964;28;20285;-67
2023/04/06 01:39:12;;;;;;;7.25;4.85;;;4.40;99.90;;;4.28;nan;100873.59;5011254;28;20227;-65
2023/04/06 01:41:39;;;;;;;6.47;4.30;;;4.40;99.90;;;4.29;nan;100879.63;5029163;23;20227;-64
2023/04/06 01:44:06;;;;;;;8.27;5.07;;;4.40;99.90;;;4.30;nan;100881.31;4991743;28;20235;-64
2023/04/06 01:46:33;;;;;;;7.30;4.60;;;4.40;99.90;;;4.29;nan;100874.47;4991387;28;20195;-64
2023/04/06 01:49:00;;;;;;;5.32;4.30;;;4.40;99.90;;;4.28;nan;100872.78;4989522;28;20553;-65
2023/04/06 01:51:27;;;;;;;6.05;4.10;;;4.40;99.90;;;4.27;nan;100882.28;4976070;28;20234;-65
2023/04/06 01:53:55;;;;;;;7.22;4.60;;;4.40;99.90;;;4.24;nan;100881.59;4972122;28;20214;-66
2023/04/06 01:56:22;;;;;;;9.57;4.40;;;4.40;99.90;;;4.27;nan;100871.09;4972167;28;20226;-64
2023/04/06 01:58:49;;;;;;;7.38;4.72;;;4.40;99.90;;;4.23;nan;100870.41;4972525;28;20263;-65
2023/04/06 02:01:16;;;;;;;7.18;4.30;;;4.30;99.90;;;4.25;nan;100878.06;4972588;28;20232;-64
2023/04/06 02:03:43;;;;;;;7.60;4.95;;;4.30;99.90;;;4.23;nan;100882.47;4967389;28;20236;-65
2023/04/06 02:06:10;;;;;;;8.30;4.47;;;4.30;99.90;;;4.22;nan;100880.78;4971725;28;20285;-64
2023/04/06 02:08:38;;;;;;;6.32;4.53;;;4.30;99.90;;;4.24;nan;100874.66;4972148;28;20204;-65
2023/04/06 02:11:05;;;;;;;14.85;4.85;;;4.30;99.90;;;4.24;nan;100874.66;4971022;28;20711;-65
2023/04/06 02:13:32;;;;;;;7.85;4.25;;;4.40;99.90;;;4.26;nan;100877.19;4972566;28;20219;-65
2023/04/06 02:15:58;;;;;;;4.43;2.40;;;4.40;99.90;;;4.19;nan;100871.44;4972765;28;20227;-65
2023/04/06 02:18:26;;;;;;;3.15;2.38;;;4.30;99.90;;;4.10;nan;100879.56;4972905;28;20211;-64
2023/04/06 02:20:53;;;;;;;6.45;4.15;;;4.20;99.90;;;4.04;nan;100886.72;4971462;28;20235;-65
2023/04/06 02:23:20;;;;;;;6.18;4.50;;;4.10;99.90;;;4.00;nan;100883.44;4972255;28;20280;-64
2023/04/06 02:25:47;;;;;;;7.63;3.63;;;4.10;99.90;;;3.97;nan;100886.13;4973243;28;20216;-66
2023/04/06 02:28:14;;;;;;;2.92;2.63;;;4.10;99.90;;;3.91;nan;100871.75;4969254;28;20267;-65
2023/04/06 02:30:41;;;;;;;3.47;2.95;;;4.00;99.90;;;3.92;nan;100886.31;4972148;28;20600;-65
2023/04/06 02:33:08;;;;;;;3.92;2.65;;;4.00;99.90;;;3.85;nan;100879.72;4971808;28;20211;-65
2023/04/06 02:35:35;;;;;;;3.42;3.13;;;4.00;99.90;;;3.81;nan;100875.56;4973231;28;20208;-66
2023/04/06 02:38:02;;;;;;;2.42;1.90;;;3.90;99.90;;;3.78;nan;100870.56;4970744;28;20760;-65
2023/04/06 02:40:29;;;;;;;2.95;2.72;;;3.90;99.90;;;3.69;nan;100878.66;4971827;28;20236;-66
2023/04/06 02:42:56;;;;;;;2.55;2.20;;;3.80;99.90;;;3.60;nan;100876.44;4971355;28;20706;-67
2023/04/06 02:45:23;;;;;;;3.55;2.60;;;3.70;99.90;;;3.51;nan;100866.50;4972241;28;20200;-66
2023/04/06 02:47:50;;;;;;;2.60;2.15;;;3.60;99.90;;;3.46;nan;100876.13;4967473;28;20208;-65
2023/04/06 02:50:17;;;;;;;3.90;2.95;;;3.50;99.90;;;3.39;nan;100871.25;4970063;28;20228;-65
2023/04/06 02:52:44;;;;;;;7.03;4.07;;;3.50;99.90;;;3.41;nan;100866.91;4963610;28;20204;-65
2023/04/06 02:55:11;;;;;;;3.38;2.25;;;3.50;99.90;;;3.41;nan;100864.34;4972323;28;20653;-64
2023/04/06 02:57:38;;;;;;;1.48;1.38;;;3.50;99.90;;;3.36;nan;100863.66;4970972;28;20207;-63
2023/04/06 03:00:06;;;;;;;4.05;1.95;;;3.50;99.90;;;3.27;nan;100864.00;4972638;28;20224;-67
2023/04/06 03:02:33;;;;;;;3.25;1.60;;;3.30;99.90;;;3.20;nan;100865.13;4970051;28;20654;-66
2023/04/06 03:05:01;;;;;;;2.35;1.95;;;3.30;99.90;;;3.11;nan;100861.16;4964411;28;20204;-65
2023/04/06 03:07:28;;;;;;;2.90;2.60;;;3.20;99.90;;;3.05;nan;100862.25;4970941;28;20547;-66
2023/04/06 03:09:55;;;;;;;3.45;2.65;;;3.10;99.90;;;3.07;nan;100862.19;4972292;28;20227;-65
2023/04/06 03:12:22;;;;;;;2.70;2.50;;;3.20;99.90;;;3.04;nan;100855.44;4971682;28;20705;-64
2023/04/06 03:14:49;;;;;;;2.55;2.35;;;3.10;99.90;;;3.05;nan;100867.41;4971977;28;20212;-65
2023/04/06 03:17:16;;;;;;;2.92;2.05;;;3.10;99.90;;;3.01;nan;100863.25;4970546;28;20204;-65
2023/04/06 03:19:43;;;;;;;4.50;2.53;;;3.10;99.90;;;2.95;nan;100854.91;4971088;28;20594;-65
2023/04/06 03:22:15;;;;;;;2.17;1.70;;;3.10;99.90;;;2.87;nan;100859.50;4971288;28;20212;-66
2023/04/06 03:24:42;;;;;;;3.15;1.38;;;3.00;99.90;;;2.87;nan;100857.78;4985588;28;20720;-64
2023/04/06 03:27:09;;;;;;;3.60;2.47;;;3.00;99.90;;;2.88;nan;100859.44;4971555;28;20212;-65
2023/04/06 03:29:38;;;;;;;1.15;1.05;;;3.00;99.90;;;2.88;nan;100864.59;4972620;28;20207;-66
2023/04/06 03:32:06;;;;;;;2.47;2.25;;;3.00;99.90;;;2.85;nan;100862.16;4970930;28;20196;-65
2023/04/06 03:34:35;;;;;;;2.45;2.05;;;3.00;99.90;;;2.87;nan;100864.66;4970195;28;20216;-64
2023/04/06 03:37:02;;;;;;;1.52;1.30;;;3.00;99.90;;;2.85;nan;100863.88;4970002;28;20212;-67
2023/04/06 03:39:36;;;;;;;5.63;2.10;;;3.00;99.90;;;2.84;nan;100855.31;4971787;28;20208;-64
2023/04/06 03:42:03;;;;;;;1.75;1.65;;;3.00;99.90;;;2.81;nan;100865.72;4966271;28;20226;-66
2023/04/06 03:44:30;;;;;;;4.85;3.17;;;2.90;99.90;;;2.81;nan;100865.72;4970706;28;20212;-65
2023/04/06 03:46:57;;;;;;;1.65;1.55;;;2.90;99.90;;;2.77;nan;100866.72;4961809;28;20211;-66
2023/04/06 03:49:24;;;;;;;2.90;2.10;;;2.90;99.90;;;2.83;nan;100870.84;4971223;28;20208;-64
2023/04/06 03:51:52;;;;;;;4.22;2.28;;;2.90;99.90;;;2.85;nan;100872.47;4970285;28;20710;-65
2023/04/06 03:54:19;;;;;;;2.15;1.90;;;3.00;99.90;;;2.84;nan;100868.19;4971129;28;20286;-65
2023/04/06 03:56:46;;;;;;;5.43;3.55;;;3.00;99.90;;;2.88;nan;100877.50;4971586;28;20216;-65
2023/04/06 03:59:13;;;;;;;6.60;2.65;;;3.00;99.90;;;2.90;nan;100880.84;4972982;28;20216;-66
2023/04/06 04:01:40;;;;;;;3.33;2.88;;;3.00;99.90;;;2.83;nan;100881.97;4975924;28;20232;-65
2023/04/06 04:04:07;;;;;;;0.50;0.50;;;3.00;99.90;;;2.81;nan;100883.75;4974266;28;20313;-66
2023/04/06 04:06:36;;;;;;;2.92;1.20;;;2.90;99.90;;;2.81;nan;100886.31;4974438;28;20196;-65
2023/04/06 04:09:05;;;;;;;2.50;1.73;;;2.90;99.90;;;2.80;nan;100882.09;4973008;28;20207;-66
2023/04/06 04:11:32;;;;;;;4.60;2.90;;;2.90;99.90;;;2.81;nan;100876.03;4974264;28;20608;-65
2023/04/06 04:13:59;;;;;;;1.25;1.08;;;2.90;99.90;;;2.86;nan;100883.59;4973847;28;20231;-66
2023/04/06 04:16:26;;;;;;;4.28;2.17;;;3.00;99.90;;;2.84;nan;100885.38;4972514;28;20270;-65
2023/04/06 04:18:53;;;;;;;0.77;0.75;;;3.00;99.90;;;2.85;nan;100887.94;4974034;28;20211;-66
2023/04/06 04:21:20;;;;;;;4.88;2.97;;;3.00;99.90;;;2.89;nan;100894.66;4973045;28;20238;-65
2023/04/06 04:23:47;;;;;;;6.93;2.55;;;3.00;99.90;;;2.89;nan;100896.38;4973226;28;20216;-62
2023/04/06 04:26:14;;;;;;;3.08;2.60;;;3.00;99.90;;;2.90;nan;100898.88;4974668;28;20204;-66
2023/04/06 04:28:41;;;;;;;9.18;4.85;;;3.00;99.90;;;2.94;nan;100902.19;4973180;28;20196;-66
2023/04/06 04:31:08;;;;;;;6.50;3.55;;;3.10;99.90;;;2.99;nan;100900.28;4974373;28;20717;-67
2023/04/06 04:33:35;;;;;;;6.25;4.18;;;3.10;99.90;;;3.03;nan;100899.28;4973525;28;20264;-64
2023/04/06 04:36:02;;;;;;;5.53;4.20;;;3.10;99.90;;;3.08;nan;100900.81;4974171;28;20208;-65
2023/04/06 04:38:29;;;;;;;9.45;5.10;;;3.20;99.90;;;3.08;nan;100899.97;4973626;28;20823;-65
2023/04/06 04:40:57;;;;;;;5.13;3.65;;;3.20;99.90;;;3.08;nan;100900.81;4972835;28;20231;-63
2023/04/06 04:43:24;;;;;;;3.75;2.95;;;3.20;99.90;;;3.07;nan;100899.13;4973785;28;20231;-68
2023/04/06 04:45:52;;;;;;;2.97;2.40;;;3.20;99.90;;;3.06;nan;100902.59;4973409;28;20200;-66
2023/04/06 04:48:19;;;;;;;5.97;3.95;;;3.20;99.90;;;3.05;nan;100900.06;4962859;28;20732;-65
2023/04/06 04:50:46;;;;;;;2.78;2.53;;;3.20;99.90;;;3.00;nan;100895.06;4973205;28;20230;-66
2023/04/06 04:53:13;;;;;;;3.17;2.10;;;3.10;99.90;;;3.03;nan;100899.28;4973147;28;20200;-66
2023/04/06 04:55:40;;;;;;;3.35;2.60;;;3.20;99.90;;;3.02;nan;100898.44;4973684;28;20200;-67
2023/04/06 04:58:08;;;;;;;3.88;2.75;;;3.20;99.90;;;3.02;nan;100905.34;4972529;28;20219;-66
2023/04/06 05:00:35;;;;;;;4.03;1.30;;;3.20;99.90;;;2.96;nan;100905.56;4972382;28;20713;-66
2023/04/06 05:03:04;;;;;;;3.78;1.98;;;3.10;99.90;;;2.96;nan;100900.41;4971399;28;20620;-67
2023/04/06 05:05:31;;;;;;;1.30;0.80;;;3.10;99.90;;;2.92;nan;100904.81;4978426;28;20671;-64
2023/04/06 05:07:58;;;;;;;4.60;2.25;;;3.10;99.90;;;2.96;nan;100898.66;4953362;28;20216;-66
2023/04/06 05:10:25;;;;;;;4.65;3.55;;;3.10;99.90;;;3.01;nan;100903.66;4953767;28;20711;-66
2023/04/06 05:12:53;;;;;;;3.75;3.25;;;3.10;99.90;;;3.09;nan;100907.63;4962095;28;20247;-67
2023/04/06 05:15:20;;;;;;;5.88;4.90;;;3.20;99.90;;;3.24;nan;100919.09;4973384;28;20307;-66
2023/04/06 05:17:47;;;;;;;4.70;3.75;;;3.30;99.90;;;3.40;nan;100917.66;4972052;28;20556;-66
2023/04/06 05:20:14;;;;;;;2.35;2.10;;;3.50;99.90;;;3.58;nan;100921.25;4970716;28;20717;-66
2023/04/06 05:22:41;;;;;;;3.60;3.30;;;3.60;99.90;;;3.72;nan;100921.56;4967760;28;20208;-67
2023/04/06 05:25:08;;;;;;;3.30;2.55;;;3.80;99.90;;;3.90;nan;100923.41;4966972;28;20701;-66
2023/04/06 05:27:35;;;;;;;3.70;1.98;;;4.00;99.90;;;4.10;nan;100925.19;4971183;28;20655;-66
2023/04/06 05:30:03;;;;;;;4.30;2.65;;;4.10;99.90;;;4.31;nan;100930.31;4972328;28;20215;-65
2023/04/06 05:32:30;;;;;;;4.97;3.30;;;4.30;99.90;;;4.52;nan;100923.41;4973040;28;20208;-66
2023/04/06 05:34:57;;;;;;;2.58;1.70;;;4.60;99.90;;;4.74;nan;100926.75;4967342;28;20212;-67
2023/04/06 05:37:24;;;;;;;6.15;3.25;;;4.80;99.90;;;4.96;nan;100919.72;4972717;28;20200;-66
2023/04/06 05:39:51;;;;;;;4.40;2.35;;;5.00;99.90;;;5.19;nan;100926.47;4972166;28;20323;-66
2023/04/06 05:42:18;;;;;;;2.22;1.90;;;5.20;99.90;;;5.39;nan;100928.97;4972697;28;20207;-66
2023/04/06 05:44:45;;;;;;;2.58;2.10;;;5.40;99.90;;;5.60;nan;100933.16;4972187;28;20307;-68
2023/04/06 05:47:13;;;;;;;5.97;3.92;;;5.60;99.90;;;5.78;nan;100929.72;4971035;28;20235;-66
2023/04/06 05:49:42;;;;;;;5.15;2.95;;;5.80;99.90;;;6.07;nan;100930.94;4969580;28;20284;-66
2023/04/06 05:52:10;;;;;;;4.10;3.30;;;6.10;99.90;;;6.39;nan;100930.19;4971927;28;20196;-66
2023/04/06 05:54:37;;;;;;;4.55;2.60;;;6.40;99.90;;;6.70;nan;100932.09;4970994;28;20693;-64
2023/04/06 05:57:04;;;;;;;2.22;2.03;;;6.80;99.90;;;6.86;nan;100920.00;4972990;28;20222;-66
2023/04/06 05:59:31;;;;;;;0.63;0.47;;;6.90;99.90;;;6.91;nan;100920.59;4971383;28;20592;-64
2023/04/06 06:01:58;;;;;;;3.38;2.95;;;7.00;99.90;;;7.13;nan;100928.09;4969772;28;20296;-66
2023/04/06 06:04:25;;;;;;;6.88;3.22;;;7.20;99.90;;;7.23;nan;100934.47;4971049;28;20234;-65
2023/04/06 06:06:52;;;;;;;6.47;3.97;;;7.20;99.90;;;7.56;nan;100927.47;4970986;28;20200;-63
2023/04/06 06:09:19;;;;;;;7.82;3.85;;;7.50;99.90;;;8.01;nan;100924.91;4972635;28;20238;-66
2023/04/06 06:11:46;;;;;;;6.63;3.10;;;8.00;99.90;;;8.38;nan;100934.06;4973036;28;20231;-63
2023/04/06 06:14:13;;;;;;;5.20;3.75;;;8.40;99.50;;;8.61;nan;100930.94;4972695;28;20650;-66
2023/04/06 06:16:40;;;;;;;4.60;3.00;;;8.60;98.50;;;8.99;nan;100924.28;4971933;28;20723;-67
2023/04/06 06:19:07;;;;;;;6.10;4.03;;;9.00;97.90;;;9.50;nan;100922.84;4965916;28;20647;-65
2023/04/06 06:21:34;;;;;;;2.70;2.00;;;9.50;96.70;;;9.96;nan;100915.53;4971432;28;20659;-66
2023/04/06 06:24:01;;;;;;;5.50;3.93;;;9.90;95.30;;;10.28;nan;100921.28;4971076;28;20674;-67
2023/04/06 06:26:28;;;;;;;5.90;4.13;;;10.30;94.20;;;10.66;nan;100927.41;4972005;28;20611;-65
2023/04/06 06:28:55;;;;;;;3.20;1.70;;;10.70;92.60;;;11.17;nan;100917.75;4969000;28;20639;-65
2023/04/06 06:31:23;;;;;;;9.13;3.90;;;11.20;91.20;;;11.37;nan;100925.84;4972415;28;20644;-66
2023/04/06 06:33:51;;;;;;;6.87;4.13;;;11.40;90.10;;;11.98;nan;100927.56;4971753;28;20688;-65
2023/04/06 06:36:18;;;;;;;5.40;4.20;;;11.90;88.00;;;12.58;nan;100922.19;4971251;28;20626;-63
2023/04/06 06:38:45;;;;;;;5.10;4.03;;;12.50;84.20;;;12.89;nan;100921.50;4967093;28;20710;-64
2023/04/06 06:41:13;;;;;;;8.90;4.87;;;12.90;82.60;;;13.19;nan;100927.03;4967983;28;21268;-63
2023/04/06 06:43:40;;;;;;;7.07;4.00;;;13.20;80.50;;;13.63;nan;100926.13;4966617;28;21267;-64
2023/04/06 06:46:07;;;;;;;14.57;4.40;;;13.70;77.90;;;14.01;nan;100923.88;4969920;28;20701;-64
2023/04/06 06:48:34;;;;;;;10.67;6.17;;;14.10;75.80;;;14.00;nan;100930.09;4971261;28;20635;-63
2023/04/06 06:51:01;;;;;;;4.83;2.93;;;14.20;73.40;;;13.71;nan;100931.63;4969572;28;20670;-64
2023/04/06 06:53:28;;;;;;;7.27;3.53;;;13.80;73.40;;;13.33;nan;100930.38;4958181;28;20694;-63
2023/04/06 06:55:55;;;;;;;2.30;2.10;;;13.50;73.60;;;13.12;nan;100933.69;4966472;28;20638;-61
2023/04/06 06:58:22;;;;;;;2.70;2.43;;;13.30;73.90;;;13.04;nan;100929.97;4970224;28;20639;-63
2023/04/06 07:00:49;;;;;;;10.10;4.03;;;13.10;74.80;;;13.48;nan;100929.16;4972715;28;20655;-63
2023/04/06 07:03:17;;;;;;;8.00;5.17;;;13.40;74.00;;;13.71;nan;100930.78;4969286;28;20639;-64
2023/04/06 07:05:49;;;;;;;8.77;4.53;;;13.70;73.00;;;14.09;nan;100935.53;4967634;28;20724;-64
2023/04/06 07:08:16;;;;;;;6.53;3.40;;;14.00;71.80;;;14.43;nan;100932.69;4970344;28;20615;-67
2023/04/06 07:10:43;;;;;;;7.10;2.70;;;14.40;70.80;;;14.41;nan;100934.59;4972359;28;20767;-64
2023/04/06 07:13:11;;;;;;;7.73;4.87;;;14.40;70.00;;;14.38;nan;100926.13;4969532;28;20639;-64
2023/04/06 07:15:38;;;;;;;5.80;4.67;;;14.40;69.60;;;14.93;nan;100928.41;4970619;28;20698;-64
2023/04/06 07:18:05;;;;;;;7.73;3.80;;;14.80;69.20;;;15.40;nan;100925.13;4970919;28;20619;-64
2023/04/06 07:20:32;;;;;;;10.33;5.40;;;15.30;67.60;;;15.70;nan;100929.53;4970872;28;20639;-65
2023/04/06 07:22:59;;;;;;;7.60;5.30;;;15.60;66.80;;;15.66;nan;100935.19;4969631;28;20624;-63
2023/04/06 07:25:26;;;;;;;7.40;4.23;;;15.60;65.60;;;15.60;nan;100927.84;4968740;28;20754;-64
2023/04/06 07:27:53;;;;;;;10.03;5.40;;;15.50;65.60;;;15.87;nan;100931.50;4968095;28;20635;-64
2023/04/06 07:30:21;;;;;;;6.97;5.60;;;15.80;65.00;;;15.73;nan;100939.78;4968145;28;20671;-63
2023/04/06 07:32:49;;;;;;;9.13;6.57;;;15.70;64.70;;;16.21;nan;100934.56;4971004;28;20635;-62
2023/04/06 07:35:16;;;;;;;8.67;5.70;;;16.10;64.20;;;16.24;nan;100942.19;4974099;28;20638;-63
2023/04/06 07:37:43;;;;;;;12.57;4.90;;;16.20;63.40;;;16.19;nan;100937.34;4974922;28;20627;-62
2023/04/06 07:40:10;;;;;;;8.60;5.43;;;16.20;63.10;;;16.38;nan;100941.75;4974748;28;20654;-65
2023/04/06 07:42:37;;;;;;;7.87;5.30;;;16.30;62.70;;;16.42;nan;100942.31;4975450;28;20630;-63
2023/04/06 07:45:05;;;;;;;8.43;5.60;;;16.40;62.50;;;16.36;nan;100933.16;4974257;28;21223;-64
2023/04/06 07:47:32;;;;;;;7.37;6.23;;;16.40;61.90;;;16.14;nan;100933.47;5005980;23;20686;-66
2023/04/06 07:49:59;;;;;;;9.73;6.90;;;16.20;62.70;;;16.27;nan;100939.25;4972297;28;20635;-66
2023/04/06 07:52:27;;;;;;;7.30;4.17;;;16.30;62.10;;;16.50;nan;100930.16;4974187;28;20613;-64
2023/04/06 07:54:54;;;;;;;10.20;6.57;;;16.50;61.50;;;16.72;nan;100926.34;4975161;28;20619;-66
2023/04/06 07:57:21;;;;;;;8.00;5.87;;;16.80;60.70;;;17.02;nan;100926.97;4960036;28;20674;-66
2023/04/06 07:59:47;;;;;;;9.87;6.03;;;17.20;59.70;;;17.43;nan;100928.31;4955847;28;20644;-66
2023/04/06 08:02:15;;;;;;;9.37;4.33;;;17.70;59.00;;;17.38;nan;100929.69;4955816;28;20644;-66
2023/04/06 08:04:43;;;;;;;11.10;7.30;;;17.80;57.50;;;17.36;nan;100929.84;4955728;28;20700;-67
2023/04/06 08:07:12;;;;;;;9.90;6.47;;;17.80;57.30;;;17.55;nan;100928.94;4954052;28;20994;-66
2023/04/06 08:09:39;;;;;;;16.83;6.80;;;18.00;57.20;;;18.16;nan;100919.38;4954177;28;20632;-66
2023/04/06 08:12:06;;;;;;;12.40;5.73;;;18.70;55.70;;;18.43;nan;100932.47;4955891;29;20729;-65
2023/04/06 08:14:33;;;;;;;9.97;7.17;;;18.90;54.40;;;19.00;nan;100932.84;4955642;28;20667;-66
2023/04/06 08:17:00;;;;;;;9.13;6.20;;;19.60;53.50;;;19.30;nan;100932.34;4955398;28;20706;-66
2023/04/06 08:19:27;;;;;;;9.03;5.93;;;19.90;53.10;;;19.95;nan;100928.91;4938909;29;20703;-65
2023/04/06 08:21:54;;;;;;;13.90;8.77;;;20.60;52.40;;;20.10;nan;100937.88;4954594;28;20632;-64
2023/04/06 08:24:21;;;;;;;13.67;8.53;;;20.70;51.40;;;20.32;nan;100930.31;4969628;28;20726;-66
2023/04/06 08:26:48;;;;;;;13.47;8.53;;;21.00;50.50;;;20.38;nan;100935.78;4956179;28;20655;-65
2023/04/06 08:29:16;;;;;;;10.77;7.47;;;21.00;50.10;;;21.27;nan;100927.69;4952865;28;20650;-66
2023/04/06 08:31:42;;;;;;;12.67;8.53;;;22.10;69.00;;;21.86;nan;100932.38;4955592;29;20673;-67
2023/04/06 08:34:10;;;;;;;13.60;8.57;;;22.50;48.20;;;21.66;nan;100925.03;4954294;28;21311;-66
2023/04/06 08:36:39;;;;;;;10.80;7.80;;;22.30;48.40;;;22.07;nan;100931.75;4951502;28;20660;-67
2023/04/06 08:39:06;;;;;;;13.37;8.97;;;22.60;48.00;;;22.47;nan;100928.75;4953645;28;20644;-65
2023/04/06 08:41:34;;;;;;;11.67;8.20;;;23.00;47.40;;;22.83;nan;100924.44;4953897;29;20640;-64
2023/04/06 08:44:02;;;;;;;10.33;7.97;;;23.50;46.40;;;23.74;nan;100932.00;4953208;28;20626;-65
2023/04/06 08:46:30;;;;;;;11.37;8.90;;;24.20;45.70;;;24.12;nan;100932.63;4953301;28;20684;-66
2023/04/06 08:49:01;;;;;;;12.03;7.57;;;24.70;44.90;;;23.97;nan;100935.34;4953455;28;20640;-65
2023/04/06 08:51:30;;;;;;;14.00;9.07;;;24.70;44.90;;;24.48;nan;100931.53;4944145;28;20711;-66
2023/04/06 08:53:59;;;;;;;11.90;8.80;;;25.00;43.60;;;24.67;nan;100930.03;4951071;28;20640;-64
2023/04/06 08:56:28;;;;;;;12.80;8.20;;;25.30;42.60;;;24.13;nan;100923.63;4937907;29;20726;-66
2023/04/06 08:58:56;;;;;;;16.43;9.47;;;25.00;43.00;;;24.64;nan;100925.91;4954490;28;21217;-67
2023/04/06 09:01:27;;;;;;;10.40;8.07;;;25.20;43.20;;;24.61;nan;100933.47;4954473;28;20658;-65
2023/04/06 09:04:00;;;;;;;13.60;9.30;;;25.20;43.30;;;25.00;nan;100924.94;4949886;28;20639;-65
2023/04/06 09:06:27;;;;;;;13.00;8.80;;;25.50;42.80;;;25.15;nan;100926.44;4952547;28;20687;-66
2023/04/06 09:08:55;;;;;;;12.77;9.40;;;25.70;42.70;;;25.46;nan;100917.16;4949408;28;20652;-64
2023/04/06 09:11:22;;;;;;;12.47;9.20;;;26.00;42.20;;;25.61;nan;100932.03;4952262;28;20656;-67
2023/04/06 09:13:55;;;;;;;9.93;8.53;;;26.00;42.30;;;25.76;nan;100930.03;4950505;28;20676;-65
2023/04/06 09:16:22;;;;;;;17.30;8.60;;;26.20;42.30;;;26.17;nan;100927.25;4945902;28;21020;-64
2023/04/06 09:18:50;;;;;;;12.10;8.70;;;26.60;41.80;;;26.60;nan;100927.69;4950094;28;20686;-64
2023/04/06 09:21:20;;;;;;;10.80;8.23;;;27.00;41.30;;;26.81;nan;100919.44;4948026;28;21241;-66
2023/04/06 09:24:00;;;;;;;11.07;8.07;;;27.40;41.10;;;26.49;nan;100925.63;4947201;28;20635;-65
2023/04/06 09:26:28;;;;;;;11.23;8.03;;;26.90;40.90;;;26.59;nan;100924.19;4947613;28;20726;-65
2023/04/06 09:28:57;;;;;;;12.73;8.80;;;27.00;40.70;;;27.07;nan;100922.03;4968242;28;20624;-64
2023/04/06 09:31:30;;;;;;;12.97;8.73;;;27.40;40.80;;;26.24;nan;100916.56;4946885;28;20636;-62
2023/04/06 09:33:57;;;;;;;11.00;8.73;;;27.00;40.40;;;26.29;nan;100914.09;4949673;28;21202;-64
2023/04/06 09:36:34;;;;;;;12.20;9.20;;;26.60;41.40;;;26.43;nan;100916.56;4949881;28;20664;-64
2023/04/06 09:39:03;;;;;;;13.83;10.80;;;26.80;40.30;;;26.67;nan;100912.41;4943658;28;20652;-64
2023/04/06 09:41:36;;;;;;;10.03;8.60;;;27.00;39.90;;;27.33;nan;100911.25;4947983;28;20647;-66
2023/04/06 09:44:06;;;;;;;10.07;8.50;;;27.70;39.70;;;28.18;nan;100915.34;4951206;29;20632;-67
2023/04/06 09:46:41;;;;;;;9.03;7.00;;;28.50;39.40;;;27.89;nan;100913.25;4939844;28;20713;-67
2023/04/06 09:49:28;;;;;;;10.83;7.40;;;28.80;38.70;;;27.27;nan;100901.38;4942117;28;20642;-67
2023/04/06 09:52:07;;;;;;;11.50;7.60;;;27.80;39.00;;;27.67;nan;100910.06;4951712;28;20680;-67
2023/04/06 09:54:35;;;;;;;9.30;7.13;;;28.00;39.00;;;27.91;nan;100906.63;4943955;28;21217;-64
2023/04/06 09:57:25;;;;;;;13.00;8.57;;;28.40;38.70;;;27.41;nan;100899.47;4964764;28;20648;-64
2023/04/06 10:00:11;;;;;;;9.30;7.80;;;28.20;38.70;;;27.86;nan;100903.78;4944734;28;20613;-63
2023/04/06 10:03:38;;;;;;;8.50;7.20;;;28.30;38.60;;;27.86;nan;100900.25;4951068;28;20608;-66
2023/04/06 10:06:11;;;;;;;8.80;7.87;;;28.50;38.30;;;28.05;nan;100893.97;4964112;28;20675;-67
2023/04/06 10:08:41;;;;;;;9.07;7.90;;;28.30;38.70;;;27.68;nan;100891.09;4960632;28;20635;-67
2023/04/06 10:11:10;;;;;;;10.73;7.73;;;28.00;38.40;;;27.07;nan;100876.50;4951288;29;20619;-66
2023/04/06 10:13:37;;;;;;;9.10;6.20;;;27.70;38.60;;;26.97;nan;100886.03;4948402;28;20644;-65
2023/04/06 10:16:06;;;;;;;8.83;7.23;;;27.50;38.40;;;27.44;nan;100891.84;4950960;28;20652;-66
2023/04/06 10:18:33;;;;;;;9.17;7.07;;;27.70;38.50;;;27.42;nan;100891.25;4949352;28;20680;-65
2023/04/06 10:21:13;;;;;;;13.23;7.47;;;27.90;38.40;;;26.50;nan;100881.75;4949187;28;20686;-65
2023/04/06 10:24:02;;;;;;;14.57;7.03;;;27.00;38.50;;;25.23;nan;100875.56;4935468;29;20631;-65
2023/04/06 10:26:29;;;;;;;9.83;6.20;;;25.70;39.60;;;24.88;nan;100867.78;4943434;28;20676;-66
2023/04/06 10:29:05;;;;;;;10.20;6.23;;;24.90;40.50;;;24.39;nan;100865.19;4951900;28;21208;-66
2023/04/06 10:31:32;;;;;;;7.53;5.80;;;24.30;41.40;;;23.19;nan;100859.84;4951482;28;20635;-65
2023/04/06 10:34:01;;;;;;;6.60;5.10;;;23.40;40.30;;;21.95;nan;100848.97;4951490;28;21208;-66
2023/04/06 10:36:33;;;;;;;9.20;5.70;;;21.90;40.60;;;21.30;nan;100861.81;4952740;28;20667;-66